Time;durP1;ratioP1;P1;durP2;ratioP2;P2;SDS_P1;SDS_P2;PMS_P1;PMS_P2;Temp;Humidity;BMP_temperature;BMP_pressure;BME280_temperature;BME280_humidity;BME280_pressure;Samples;Min_cycle;Max_cycle;Signal;HPM_P1;HPM_P2
2021/10/17 00:00:24;;;;;;;9.88;4.00;;;10.40;99.90;;;;;;5131604;27;20218;-82
2021/10/17 00:02:51;;;;;;;13.15;5.60;;;10.40;99.90;;;;;;5128672;27;20271;-83
2021/10/17 00:05:21;;;;;;;5.18;4.05;;;10.40;99.90;;;;;;5133254;27;20201;-82
2021/10/17 00:07:49;;;;;;;6.47;4.57;;;10.40;99.90;;;;;;5124690;27;20228;-82
2021/10/17 00:13:05;;;;;;;11.27;6.18;;;10.40;99.90;;;;;;5129901;27;20196;-82
2021/10/17 00:15:34;;;;;;;8.50;5.22;;;10.40;99.90;;;;;;5130450;27;20284;-83
2021/10/17 00:18:02;;;;;;;6.22;4.38;;;10.30;99.90;;;;;;5128496;28;20199;-82
2021/10/17 00:20:30;;;;;;;12.05;4.35;;;10.30;99.90;;;;;;5122822;28;20229;-82
2021/10/17 00:22:58;;;;;;;7.47;4.07;;;10.30;99.90;;;;;;5131890;27;20216;-82
2021/10/17 00:25:27;;;;;;;11.90;5.28;;;10.40;99.90;;;;;;5126693;27;20288;-82
2021/10/17 00:27:55;;;;;;;8.27;3.90;;;10.30;99.90;;;;;;5126094;28;20217;-82
2021/10/17 00:30:22;;;;;;;13.07;4.10;;;10.50;99.90;;;;;;5125598;27;20222;-82
2021/10/17 00:32:49;;;;;;;12.10;4.72;;;10.40;99.90;;;;;;5122966;27;20201;-83
2021/10/17 00:35:17;;;;;;;7.10;4.57;;;10.50;99.90;;;;;;5121835;28;20203;-82
2021/10/17 00:37:44;;;;;;;15.95;4.80;;;10.40;99.90;;;;;;5124481;27;20198;-83
2021/10/17 00:40:13;;;;;;;11.18;4.70;;;10.40;99.90;;;;;;5133471;27;20224;-82
2021/10/17 00:42:50;;;;;;;11.80;5.63;;;10.50;99.90;;;;;;5126739;27;20222;-83
2021/10/17 00:45:27;;;;;;;12.60;5.47;;;10.40;99.90;;;;;;5121837;27;20189;-82
2021/10/17 00:47:54;;;;;;;10.57;5.25;;;10.50;99.90;;;;;;5126232;27;20201;-83
2021/10/17 00:53:03;;;;;;;12.55;5.00;;;10.50;99.90;;;;;;5118361;27;20198;-82
2021/10/17 00:55:40;;;;;;;7.97;4.18;;;10.60;99.90;;;;;;5125361;27;20208;-82
2021/10/17 00:58:10;;;;;;;10.00;4.40;;;10.50;99.90;;;;;;5127811;27;20221;-82
2021/10/17 01:00:37;;;;;;;6.38;4.80;;;10.60;99.90;;;;;;5112761;28;20585;-82
2021/10/17 01:03:04;;;;;;;12.60;5.10;;;10.50;99.90;;;;;;5108183;27;20237;-82
2021/10/17 01:05:31;;;;;;;16.60;5.55;;;10.60;99.90;;;;;;5118751;27;20293;-82
2021/10/17 01:07:59;;;;;;;9.52;5.30;;;10.50;99.90;;;;;;5132631;27;20268;-82
2021/10/17 01:10:28;;;;;;;8.93;4.97;;;10.50;99.90;;;;;;5127521;27;20237;-82
2021/10/17 01:12:55;;;;;;;7.68;4.57;;;10.50;99.90;;;;;;5116394;28;20200;-83
2021/10/17 01:15:24;;;;;;;12.88;4.40;;;10.50;99.90;;;;;;5121001;27;20223;-82
2021/10/17 01:17:51;;;;;;;8.20;4.38;;;10.50;99.90;;;;;;5126219;27;20198;-82
2021/10/17 01:20:19;;;;;;;7.22;4.35;;;10.50;99.90;;;;;;5121134;27;20225;-82
2021/10/17 01:22:47;;;;;;;9.25;4.50;;;10.50;99.90;;;;;;5116401;28;20684;-83
2021/10/17 01:25:14;;;;;;;11.63;5.90;;;10.50;99.90;;;;;;5129238;27;20667;-82
2021/10/17 01:27:41;;;;;;;10.05;5.45;;;10.50;99.90;;;;;;5123393;27;20200;-83
2021/10/17 01:30:10;;;;;;;8.30;5.05;;;10.50;99.90;;;;;;5112776;27;20253;-82
2021/10/17 01:38:49;;;;;;;10.20;5.75;;;10.50;99.90;;;;;;5126128;28;20209;-82
2021/10/17 01:41:16;;;;;;;9.32;5.57;;;10.50;99.90;;;;;;5117134;27;20198;-83
2021/10/17 01:43:43;;;;;;;12.10;4.45;;;10.40;99.90;;;;;;5141079;27;20244;-82
2021/10/17 01:46:10;;;;;;;11.05;4.28;;;10.50;99.90;;;;;;5136669;27;20233;-83
2021/10/17 01:48:37;;;;;;;11.57;5.60;;;10.50;99.90;;;;;;5117016;27;20194;-82
2021/10/17 01:51:10;;;;;;;7.40;4.60;;;10.50;99.90;;;;;;5127243;27;20231;-83
2021/10/17 01:53:38;;;;;;;10.63;5.20;;;10.50;99.90;;;;;;5120686;27;20210;-83
2021/10/17 01:56:08;;;;;;;14.30;5.00;;;10.50;99.90;;;;;;5125267;27;20232;-83
2021/10/17 01:58:35;;;;;;;9.15;4.68;;;10.50;99.90;;;;;;5119978;27;20230;-83
2021/10/17 02:01:02;;;;;;;11.35;6.30;;;10.50;99.90;;;;;;5120097;27;20210;-83
2021/10/17 02:03:30;;;;;;;9.65;5.40;;;10.50;99.90;;;;;;5113408;28;20313;-83
2021/10/17 02:05:57;;;;;;;8.35;5.13;;;10.50;99.90;;;;;;5120340;27;20580;-83
2021/10/17 02:08:24;;;;;;;8.32;4.53;;;10.50;99.90;;;;;;5128031;27;20631;-82
2021/10/17 02:10:58;;;;;;;9.07;5.15;;;10.50;99.90;;;;;;5147112;27;20212;-83
2021/10/17 02:13:26;;;;;;;11.93;4.72;;;10.50;99.90;;;;;;5133951;28;20201;-83
2021/10/17 02:15:53;;;;;;;9.80;4.90;;;10.50;99.90;;;;;;5141733;27;20182;-83
2021/10/17 02:18:20;;;;;;;13.82;5.78;;;10.50;99.90;;;;;;5132203;28;20200;-83
2021/10/17 02:20:47;;;;;;;9.77;4.72;;;10.50;99.90;;;;;;5125909;27;20222;-83
2021/10/17 02:23:15;;;;;;;9.95;4.88;;;10.50;99.90;;;;;;5134730;27;20228;-83
2021/10/17 02:25:42;;;;;;;7.03;4.30;;;10.50;99.90;;;;;;5132606;28;20210;-83
2021/10/17 02:28:09;;;;;;;7.25;4.35;;;10.50;99.90;;;;;;5143387;28;20188;-82
2021/10/17 02:30:42;;;;;;;10.75;5.78;;;10.50;99.90;;;;;;5130207;27;20217;-83
2021/10/17 02:33:19;;;;;;;10.07;4.60;;;10.60;99.90;;;;;;5131901;28;20191;-82
2021/10/17 02:35:46;;;;;;;13.30;5.25;;;10.50;99.90;;;;;;5128572;28;20200;-83
2021/10/17 02:38:13;;;;;;;13.93;5.55;;;10.60;99.90;;;;;;5135932;27;20201;-83
2021/10/17 02:40:40;;;;;;;11.38;5.20;;;10.60;99.90;;;;;;5132017;27;20228;-82
2021/10/17 02:43:09;;;;;;;7.90;5.05;;;10.50;99.90;;;;;;5138496;27;20222;-83
2021/10/17 02:45:38;;;;;;;8.73;5.45;;;10.50;99.90;;;;;;5125773;27;20210;-83
2021/10/17 02:48:05;;;;;;;12.43;5.70;;;10.60;99.90;;;;;;5137019;27;20196;-83
2021/10/17 02:50:33;;;;;;;15.40;5.95;;;10.60;99.90;;;;;;5140807;27;20253;-83
2021/10/17 02:53:00;;;;;;;8.40;4.55;;;10.60;99.90;;;;;;5137797;27;20288;-83
2021/10/17 02:55:27;;;;;;;11.27;5.20;;;10.60;99.90;;;;;;5140438;27;20203;-83
2021/10/17 02:57:55;;;;;;;12.00;5.65;;;10.60;99.90;;;;;;5128686;27;20199;-82
2021/10/17 03:00:27;;;;;;;8.07;5.30;;;10.60;99.90;;;;;;5136491;27;20252;-82
2021/10/17 03:02:55;;;;;;;14.55;4.93;;;10.60;99.90;;;;;;5114970;28;20680;-82
2021/10/17 03:05:22;;;;;;;13.70;5.55;;;10.60;99.90;;;;;;5128857;28;20197;-82
2021/10/17 03:07:50;;;;;;;16.60;5.03;;;10.60;99.90;;;;;;5142201;27;20615;-83
2021/10/17 03:10:18;;;;;;;9.88;5.07;;;10.70;99.90;;;;;;5132741;27;20234;-83
2021/10/17 03:12:45;;;;;;;11.50;5.72;;;10.60;99.90;;;;;;5132746;27;20567;-82
2021/10/17 03:15:14;;;;;;;12.90;7.47;;;10.60;99.90;;;;;;5137537;27;20201;-83
2021/10/17 03:20:31;;;;;;;12.50;4.97;;;10.70;99.90;;;;;;5126642;27;20228;-83
2021/10/17 03:22:58;;;;;;;12.32;6.80;;;10.70;99.90;;;;;;5120454;28;20228;-83
2021/10/17 03:25:25;;;;;;;14.90;6.90;;;10.70;99.90;;;;;;5138654;28;20201;-82
2021/10/17 03:27:52;;;;;;;12.30;6.50;;;10.80;99.90;;;;;;5144637;27;20206;-82
2021/10/17 03:30:19;;;;;;;8.88;5.30;;;10.80;99.90;;;;;;5144953;28;20277;-82
2021/10/17 03:32:46;;;;;;;15.35;5.90;;;10.70;99.90;;;;;;5131862;28;20179;-82
2021/10/17 03:35:14;;;;;;;16.13;6.88;;;10.70;99.90;;;;;;5157210;27;20197;-82
2021/10/17 03:38:02;;;;;;;10.82;5.38;;;10.70;99.90;;;;;;5144423;27;20219;-83
2021/10/17 03:40:29;;;;;;;15.77;6.10;;;10.70;99.90;;;;;;5129387;27;20714;-83
2021/10/17 03:43:02;;;;;;;11.05;5.82;;;10.70;99.90;;;;;;5129376;27;20317;-83
2021/10/17 03:45:36;;;;;;;13.55;5.70;;;10.70;99.90;;;;;;5130661;27;20291;-83
2021/10/17 03:48:04;;;;;;;8.90;5.85;;;10.70;99.90;;;;;;5105681;27;20237;-83
2021/10/17 03:50:32;;;;;;;11.07;5.68;;;10.70;99.90;;;;;;5105550;28;20235;-84
2021/10/17 03:52:59;;;;;;;9.05;5.70;;;10.70;99.90;;;;;;5110061;28;20208;-83
2021/10/17 03:55:41;;;;;;;15.57;5.63;;;10.60;99.90;;;;;;5118368;28;20201;-83
2021/10/17 03:58:08;;;;;;;14.68;6.50;;;10.70;99.90;;;;;;5122791;28;20196;-83
2021/10/17 04:00:36;;;;;;;14.00;6.72;;;10.70;99.90;;;;;;5122395;28;20565;-83
2021/10/17 04:03:05;;;;;;;12.88;6.25;;;10.80;99.90;;;;;;5116066;27;20253;-83
2021/10/17 04:05:32;;;;;;;11.15;6.47;;;10.80;99.90;;;;;;5117201;28;20241;-83
2021/10/17 04:07:59;;;;;;;11.88;6.00;;;10.70;99.90;;;;;;5119264;28;20648;-83
2021/10/17 04:11:05;;;;;;;14.88;5.60;;;10.70;99.90;;;;;;5118859;28;20219;-82
2021/10/17 04:13:33;;;;;;;13.43;6.13;;;10.70;99.90;;;;;;5120416;28;20221;-83
2021/10/17 04:16:29;;;;;;;15.55;6.25;;;10.70;99.90;;;;;;5125549;28;20199;-83
2021/10/17 04:19:08;;;;;;;13.93;6.35;;;10.70;99.90;;;;;;5123024;28;20226;-83
2021/10/17 04:21:37;;;;;;;12.63;6.07;;;10.70;99.90;;;;;;5127577;28;20199;-83
2021/10/17 04:24:07;;;;;;;15.40;6.95;;;10.70;99.90;;;;;;5124816;27;20224;-83
2021/10/17 04:26:35;;;;;;;12.02;5.80;;;10.70;99.90;;;;;;5122752;28;20203;-83
2021/10/17 04:31:50;;;;;;;10.85;6.32;;;10.80;99.90;;;;;;5125056;27;20222;-83
2021/10/17 04:34:45;;;;;;;9.57;5.88;;;10.80;99.90;;;;;;5123139;28;20209;-83
2021/10/17 04:37:12;;;;;;;16.95;7.80;;;10.70;99.90;;;;;;5119460;27;20277;-82
2021/10/17 04:39:51;;;;;;;10.32;5.90;;;10.80;99.90;;;;;;5126098;27;20222;-83
2021/10/17 04:42:18;;;;;;;9.70;6.68;;;10.80;99.90;;;;;;5125833;27;20194;-83
2021/10/17 04:44:54;;;;;;;14.80;6.97;;;10.80;99.90;;;;;;5126974;27;20215;-83
2021/10/17 04:47:21;;;;;;;14.32;5.82;;;10.70;99.90;;;;;;5114911;28;20646;-83
2021/10/17 04:49:56;;;;;;;26.83;7.85;;;10.70;99.90;;;;;;5112352;28;20227;-82
2021/10/17 04:52:26;;;;;;;17.52;7.65;;;10.70;99.90;;;;;;5113793;28;20209;-83
2021/10/17 04:55:01;;;;;;;16.77;6.93;;;10.80;99.90;;;;;;5113033;28;20201;-83
2021/10/17 04:57:28;;;;;;;10.55;6.68;;;10.80;99.90;;;;;;5128118;28;20211;-82
2021/10/17 04:59:56;;;;;;;15.13;7.57;;;10.80;99.90;;;;;;5122592;27;20229;-83
2021/10/17 05:02:29;;;;;;;11.85;6.55;;;10.80;99.90;;;;;;5133061;27;20298;-82
2021/10/17 05:05:02;;;;;;;16.15;8.23;;;10.80;99.90;;;;;;5138035;27;20218;-83
2021/10/17 05:07:45;;;;;;;15.93;7.22;;;10.80;99.90;;;;;;5147636;27;20224;-83
2021/10/17 05:10:12;;;;;;;13.52;7.10;;;10.80;99.90;;;;;;5135485;28;20223;-82
2021/10/17 05:15:26;;;;;;;12.30;6.63;;;10.80;99.90;;;;;;5109606;28;20221;-82
2021/10/17 05:17:53;;;;;;;11.05;6.63;;;10.80;99.90;;;;;;5128405;27;20199;-83
2021/10/17 05:20:20;;;;;;;12.18;7.50;;;10.90;99.90;;;;;;5130549;27;20226;-83
2021/10/17 05:22:48;;;;;;;17.95;7.15;;;10.90;99.90;;;;;;5124017;27;20195;-83
2021/10/17 05:25:15;;;;;;;18.42;7.00;;;10.80;99.90;;;;;;5123900;27;20195;-83
2021/10/17 05:27:47;;;;;;;13.10;7.30;;;10.80;99.90;;;;;;5128204;27;20209;-83
2021/10/17 05:30:15;;;;;;;11.20;6.80;;;10.80;99.90;;;;;;5121590;28;20217;-82
2021/10/17 05:33:04;;;;;;;12.10;6.57;;;10.80;99.90;;;;;;5134246;27;20193;-83
2021/10/17 05:35:40;;;;;;;10.82;7.28;;;10.80;99.90;;;;;;5111370;27;20225;-83
2021/10/17 05:38:08;;;;;;;11.77;7.72;;;10.80;99.90;;;;;;5120349;27;20191;-83
2021/10/17 05:43:17;;;;;;;17.45;8.45;;;10.80;99.90;;;;;;5123946;28;20210;-83
2021/10/17 05:45:44;;;;;;;12.55;7.20;;;10.70;99.90;;;;;;5126542;28;20193;-82
2021/10/17 05:48:15;;;;;;;11.82;7.15;;;10.80;99.90;;;;;;5132903;27;20209;-83
2021/10/17 05:50:54;;;;;;;12.43;7.25;;;10.80;99.90;;;;;;5132334;27;20269;-83
2021/10/17 05:53:28;;;;;;;16.50;8.95;;;10.80;99.90;;;;;;5127331;28;20198;-83
2021/10/17 05:55:56;;;;;;;12.55;7.43;;;10.80;99.90;;;;;;5127884;27;20209;-83
2021/10/17 05:58:24;;;;;;;13.05;8.90;;;10.80;99.90;;;;;;5126333;27;20208;-83
2021/10/17 06:07:53;;;;;;;20.65;8.82;;;10.80;99.90;;;;;;5026636;28;20212;-83
2021/10/17 06:10:25;;;;;;;12.95;8.00;;;10.60;99.90;;;;;;5047081;28;20346;-83
2021/10/17 06:13:19;;;;;;;18.55;8.32;;;10.80;99.90;;;;;;5067260;28;20271;-83
2021/10/17 06:15:51;;;;;;;16.33;8.73;;;10.80;99.90;;;;;;5051730;28;20204;-83
2021/10/17 06:18:38;;;;;;;13.75;7.40;;;10.70;99.90;;;;;;5057333;28;20192;-83
2021/10/17 06:48:57;;;;;;;12.55;8.45;;;10.90;99.90;;;;;;4805984;29;20232;-83
2021/10/17 06:54:22;;;;;;;9.52;7.15;;;11.00;99.90;;;;;;4918219;29;20208;-82
2021/10/17 06:56:57;;;;;;;15.38;8.50;;;11.00;99.90;;;;;;4944369;29;20237;-83
2021/10/17 06:59:28;;;;;;;18.38;8.13;;;11.00;99.90;;;;;;5011211;28;20304;-83
2021/10/17 07:05:15;;;;;;;11.70;8.25;;;11.10;99.90;;;;;;5095310;28;20287;-83
2021/10/17 07:07:45;;;;;;;14.43;8.77;;;11.10;99.90;;;;;;5126734;28;20203;-82
2021/10/17 07:10:35;;;;;;;16.80;8.57;;;11.10;99.90;;;;;;5132168;28;20224;-83
2021/10/17 07:13:18;;;;;;;15.52;7.78;;;11.20;99.90;;;;;;5138365;27;20205;-82
2021/10/17 07:16:17;;;;;;;15.10;8.18;;;11.20;99.90;;;;;;5138048;28;20203;-82
2021/10/17 07:19:03;;;;;;;12.93;7.65;;;11.20;99.90;;;;;;5131595;28;20202;-82
2021/10/17 07:22:09;;;;;;;16.45;7.70;;;11.20;99.90;;;;;;5116224;28;20220;-82
2021/10/17 07:24:38;;;;;;;12.43;8.55;;;11.20;99.90;;;;;;5123599;28;20229;-81
2021/10/17 07:27:05;;;;;;;14.18;7.90;;;11.30;99.90;;;;;;5135476;27;20210;-82
2021/10/17 07:29:32;;;;;;;10.85;7.43;;;11.30;99.90;;;;;;5127158;27;20219;-82
2021/10/17 07:32:13;;;;;;;13.13;7.97;;;11.30;99.90;;;;;;5128291;27;20213;-83
2021/10/17 07:37:46;;;;;;;15.07;8.40;;;11.30;99.90;;;;;;5114913;27;20234;-83
2021/10/17 07:40:51;;;;;;;17.55;9.38;;;11.30;99.90;;;;;;5120112;27;20224;-83
2021/10/17 07:43:18;;;;;;;12.30;6.68;;;11.40;99.90;;;;;;5127196;27;20210;-83
2021/10/17 07:45:49;;;;;;;15.25;8.10;;;11.40;99.90;;;;;;5126729;27;20516;-82
2021/10/17 07:48:28;;;;;;;15.13;9.00;;;11.50;99.90;;;;;;5122874;27;20204;-82
2021/10/17 07:51:02;;;;;;;15.23;10.05;;;11.50;99.90;;;;;;5130894;27;20215;-83
2021/10/17 07:53:48;;;;;;;11.80;8.02;;;11.50;99.90;;;;;;5118931;27;20271;-83
2021/10/17 07:56:36;;;;;;;20.42;10.05;;;11.50;99.90;;;;;;5115727;27;20242;-82
2021/10/17 07:59:15;;;;;;;17.85;8.50;;;11.70;99.90;;;;;;5125881;28;20230;-83
2021/10/17 08:01:45;;;;;;;13.45;7.60;;;11.80;99.90;;;;;;5117984;27;20199;-83
2021/10/17 08:04:14;;;;;;;14.45;8.52;;;11.80;99.90;;;;;;5117418;27;20228;-82
2021/10/17 08:09:26;;;;;;;14.38;9.00;;;12.00;99.90;;;;;;5133334;28;20264;-83
2021/10/17 08:12:23;;;;;;;17.35;8.60;;;12.10;99.90;;;;;;5140384;27;20251;-84
2021/10/17 08:17:40;;;;;;;12.20;8.35;;;12.20;99.90;;;;;;5118968;27;20197;-84
2021/10/17 08:30:14;;;;;;;11.30;8.43;;;12.20;99.90;;;;;;5013799;28;20225;-83
2021/10/17 08:32:41;;;;;;;13.07;7.32;;;12.40;99.90;;;;;;5064632;28;20232;-83
2021/10/17 08:35:29;;;;;;;10.80;8.80;;;12.40;99.90;;;;;;5127171;27;20216;-83
2021/10/17 08:38:11;;;;;;;11.73;7.57;;;12.40;99.90;;;;;;5120179;28;20258;-83
2021/10/17 08:40:40;;;;;;;12.52;7.53;;;12.30;99.90;;;;;;5125142;27;20217;-83
2021/10/17 08:43:07;;;;;;;12.65;7.70;;;12.30;99.90;;;;;;5118760;27;20211;-83
2021/10/17 08:45:37;;;;;;;18.23;7.85;;;12.30;99.90;;;;;;5135494;27;20215;-83
2021/10/17 08:48:05;;;;;;;16.60;7.85;;;12.30;99.90;;;;;;5124023;27;20571;-83
2021/10/17 08:50:34;;;;;;;13.45;8.02;;;12.40;99.90;;;;;;5126576;27;20224;-83
2021/10/17 08:53:01;;;;;;;12.82;7.60;;;12.50;99.90;;;;;;5122315;27;20216;-83
2021/10/17 08:58:49;;;;;;;17.73;9.15;;;12.60;99.90;;;;;;5126240;27;20243;-84
2021/10/17 09:01:18;;;;;;;16.08;9.77;;;12.80;99.90;;;;;;5108320;27;20200;-83
2021/10/17 09:04:12;;;;;;;14.85;8.43;;;12.80;99.90;;;;;;5117806;27;20200;-82
2021/10/17 09:06:41;;;;;;;14.70;7.88;;;12.90;99.90;;;;;;5129759;27;20200;-82
2021/10/17 09:09:27;;;;;;;14.35;7.57;;;12.90;99.90;;;;;;5104413;28;20229;-82
2021/10/17 09:11:57;;;;;;;18.83;7.30;;;12.90;99.90;;;;;;5100333;28;20215;-83
2021/10/17 09:14:27;;;;;;;15.13;7.57;;;12.90;99.90;;;;;;5125942;27;20192;-83
2021/10/17 09:16:57;;;;;;;10.82;7.03;;;12.90;99.90;;;;;;5133378;27;20238;-83
2021/10/17 09:19:26;;;;;;;13.15;8.00;;;12.90;99.90;;;;;;5133026;27;20220;-83
2021/10/17 09:22:12;;;;;;;18.67;7.80;;;13.00;99.90;;;;;;5130946;27;20212;-83
2021/10/17 09:24:41;;;;;;;11.27;7.00;;;13.00;99.90;;;;;;5133978;27;20218;-84
2021/10/17 09:27:17;;;;;;;16.13;7.70;;;12.90;99.90;;;;;;5136960;27;20204;-84
2021/10/17 09:30:21;;;;;;;13.38;9.30;;;12.90;99.90;;;;;;5107131;28;20227;-84
2021/10/17 09:32:55;;;;;;;16.42;8.75;;;12.80;99.90;;;;;;5124346;27;20200;-83
2021/10/17 09:38:38;;;;;;;15.13;7.65;;;12.90;99.90;;;;;;5114853;27;20204;-84
2021/10/17 10:52:31;;;;;;;11.80;7.18;;;14.80;99.90;;;;;;4890706;29;20288;-83
2021/10/17 10:55:01;;;;;;;12.77;6.15;;;14.80;99.90;;;;;;4945375;28;20217;-84
2021/10/17 10:57:32;;;;;;;11.95;6.68;;;14.90;99.90;;;;;;5006777;28;20197;-84
2021/10/17 11:00:07;;;;;;;12.52;6.10;;;15.00;99.90;;;;;;5058636;28;20230;-84
2021/10/17 11:02:44;;;;;;;16.73;6.45;;;14.80;99.90;;;;;;5126718;27;20233;-83
2021/10/17 11:05:17;;;;;;;11.95;5.30;;;14.90;99.90;;;;;;5098535;27;20221;-84
2021/10/17 11:07:47;;;;;;;9.93;5.03;;;14.80;99.90;;;;;;5134943;27;20207;-82
2021/10/17 11:10:47;;;;;;;7.80;6.13;;;14.80;99.90;;;;;;5128307;27;20228;-82
2021/10/17 11:13:47;;;;;;;8.45;5.75;;;14.80;99.90;;;;;;5122025;27;20212;-82
2021/10/17 11:16:40;;;;;;;16.95;7.32;;;14.50;99.90;;;;;;5094308;28;20220;-82
2021/10/17 11:19:07;;;;;;;13.13;6.20;;;14.60;99.90;;;;;;5129741;27;20243;-83
2021/10/17 11:21:49;;;;;;;8.70;6.93;;;14.50;99.90;;;;;;5138380;27;20669;-82
2021/10/17 11:24:31;;;;;;;8.63;5.65;;;14.50;99.90;;;;;;5123152;27;20197;-83
2021/10/17 11:27:11;;;;;;;16.10;6.72;;;14.50;99.90;;;;;;5125070;27;20194;-83
2021/10/17 11:29:40;;;;;;;11.95;6.97;;;14.50;99.90;;;;;;5126956;27;20221;-83
2021/10/17 11:32:17;;;;;;;12.27;7.43;;;14.50;99.90;;;;;;5120095;27;20200;-84
2021/10/17 11:34:56;;;;;;;9.05;5.75;;;14.60;99.90;;;;;;5137812;27;20196;-83
2021/10/17 11:37:26;;;;;;;8.50;5.15;;;14.50;99.90;;;;;;5123603;27;20189;-83
2021/10/17 11:39:59;;;;;;;11.35;6.10;;;14.50;99.90;;;;;;5135304;27;20213;-84
2021/10/17 11:42:28;;;;;;;8.07;5.90;;;14.60;99.90;;;;;;5124034;27;20198;-83
2021/10/17 11:44:56;;;;;;;20.38;6.13;;;14.70;99.90;;;;;;5124495;27;20229;-83
2021/10/17 11:47:24;;;;;;;12.25;6.03;;;14.60;99.90;;;;;;5129253;27;20200;-83
2021/10/17 11:49:51;;;;;;;7.80;5.72;;;14.70;99.90;;;;;;5111120;27;20229;-83
2021/10/17 11:52:27;;;;;;;13.75;6.30;;;14.50;99.90;;;;;;5118089;28;20197;-83
2021/10/17 11:54:57;;;;;;;7.68;6.07;;;14.50;99.90;;;;;;5125850;27;20205;-83
2021/10/17 11:57:28;;;;;;;8.77;6.50;;;14.60;99.90;;;;;;5114583;27;20228;-83
2021/10/17 11:59:59;;;;;;;10.93;5.85;;;14.60;99.90;;;;;;5131448;27;20218;-83
2021/10/17 12:02:32;;;;;;;10.40;6.07;;;14.50;99.90;;;;;;5128093;27;20300;-83
2021/10/17 12:05:25;;;;;;;7.45;6.32;;;14.50;99.90;;;;;;5124485;27;20221;-83
2021/10/17 12:07:55;;;;;;;10.73;7.10;;;14.50;99.90;;;;;;5128644;27;20215;-82
2021/10/17 12:10:31;;;;;;;9.07;5.38;;;14.50;99.90;;;;;;5119961;28;20244;-82
2021/10/17 12:13:04;;;;;;;12.68;6.20;;;14.50;99.90;;;;;;5122953;28;20205;-83
2021/10/17 12:15:32;;;;;;;10.82;6.95;;;14.40;99.90;;;;;;5129528;27;20207;-83
2021/10/17 12:18:07;;;;;;;13.35;6.13;;;14.40;99.90;;;;;;5134890;27;20292;-83
2021/10/17 12:20:35;;;;;;;7.60;6.15;;;14.30;99.90;;;;;;5128935;27;20213;-83
2021/10/17 12:23:02;;;;;;;14.18;5.80;;;14.20;99.90;;;;;;5141205;27;20209;-83
2021/10/17 12:25:52;;;;;;;12.30;6.47;;;14.20;99.90;;;;;;5128249;27;20225;-83
2021/10/17 12:28:19;;;;;;;13.52;6.93;;;14.20;99.90;;;;;;5119484;27;20211;-83
2021/10/17 12:30:56;;;;;;;9.27;7.63;;;14.30;99.90;;;;;;5129673;27;20196;-83
2021/10/17 12:33:33;;;;;;;13.88;6.05;;;14.30;99.90;;;;;;5127288;27;20216;-83
2021/10/17 12:36:18;;;;;;;9.45;6.38;;;14.30;99.90;;;;;;5132576;27;20220;-83
2021/10/17 12:38:45;;;;;;;8.30;5.72;;;14.40;99.90;;;;;;5130061;27;20205;-83
2021/10/17 12:41:17;;;;;;;9.73;7.38;;;14.40;99.90;;;;;;5132096;27;20204;-82
2021/10/17 12:43:48;;;;;;;11.30;7.55;;;14.40;99.90;;;;;;5136981;27;20233;-82
2021/10/17 12:46:17;;;;;;;11.85;6.35;;;14.40;99.90;;;;;;5124852;27;20240;-83
2021/10/17 12:48:46;;;;;;;11.95;5.70;;;14.40;99.90;;;;;;5130130;27;20201;-82
2021/10/17 12:51:32;;;;;;;11.32;6.50;;;14.20;99.90;;;;;;5133771;27;20209;-82
2021/10/17 12:54:18;;;;;;;9.77;5.50;;;14.20;99.90;;;;;;5137670;27;20178;-83
2021/10/17 12:56:59;;;;;;;7.40;4.93;;;14.10;99.90;;;;;;5134694;27;20259;-83
2021/10/17 12:59:27;;;;;;;13.43;6.45;;;14.20;99.90;;;;;;5138553;28;20205;-82
2021/10/17 13:02:09;;;;;;;10.25;5.70;;;14.10;99.90;;;;;;5152398;27;20196;-83
2021/10/17 13:04:51;;;;;;;9.38;5.88;;;14.10;99.90;;;;;;5133413;27;20296;-83
2021/10/17 13:07:34;;;;;;;10.90;5.55;;;14.10;99.90;;;;;;5128258;27;20197;-83
2021/10/17 13:10:08;;;;;;;10.50;6.60;;;14.20;99.90;;;;;;5132810;27;20249;-83
2021/10/17 13:12:54;;;;;;;8.63;5.45;;;14.10;99.90;;;;;;5132982;27;20206;-82
2021/10/17 13:15:26;;;;;;;8.95;6.85;;;14.20;99.90;;;;;;5128827;27;20201;-82
2021/10/17 13:17:55;;;;;;;13.00;6.28;;;14.20;99.90;;;;;;5096603;28;20230;-82
2021/10/17 13:20:24;;;;;;;10.57;7.00;;;14.20;99.90;;;;;;5116668;27;20291;-83
2021/10/17 13:22:52;;;;;;;15.02;6.85;;;14.20;99.90;;;;;;5121017;28;20198;-83
2021/10/17 13:25:21;;;;;;;23.02;7.65;;;14.20;99.90;;;;;;5129579;27;20217;-83
2021/10/17 13:27:49;;;;;;;16.08;5.95;;;14.30;99.90;;;;;;5133153;27;20208;-83
2021/10/17 13:30:18;;;;;;;11.60;7.13;;;14.30;99.90;;;;;;5125903;27;20299;-83
2021/10/17 13:32:45;;;;;;;9.88;6.90;;;14.30;99.90;;;;;;5136025;27;20201;-83
2021/10/17 13:35:14;;;;;;;11.05;8.65;;;14.30;99.90;;;;;;5130086;27;20207;-83
2021/10/17 13:37:41;;;;;;;13.35;8.00;;;14.30;99.90;;;;;;5127501;27;20239;-83
2021/10/17 13:40:10;;;;;;;11.75;7.35;;;14.30;99.90;;;;;;5129372;28;20225;-82
2021/10/17 13:42:38;;;;;;;15.15;7.05;;;14.20;99.90;;;;;;5118206;27;20221;-83
2021/10/17 13:45:06;;;;;;;10.65;7.15;;;14.20;99.90;;;;;;5123598;27;20201;-83
2021/10/17 13:47:37;;;;;;;6.95;6.25;;;14.30;99.90;;;;;;5134628;27;20189;-83
2021/10/17 13:50:04;;;;;;;12.13;6.78;;;14.30;99.90;;;;;;5138306;27;20246;-82
2021/10/17 13:52:31;;;;;;;10.27;6.80;;;14.20;99.90;;;;;;5127546;27;20204;-83
2021/10/17 13:54:59;;;;;;;10.80;6.47;;;14.10;99.90;;;;;;5120670;28;20220;-83
2021/10/17 13:57:26;;;;;;;10.50;5.82;;;14.20;99.90;;;;;;5120006;27;20206;-83
2021/10/17 13:59:53;;;;;;;9.65;6.85;;;14.20;99.90;;;;;;5126613;27;20222;-83
2021/10/17 14:02:20;;;;;;;12.07;7.15;;;14.20;99.90;;;;;;5125984;27;20193;-83
2021/10/17 14:04:49;;;;;;;11.23;5.95;;;14.30;99.90;;;;;;5126536;28;20198;-83
2021/10/17 14:07:16;;;;;;;10.15;7.10;;;14.20;99.90;;;;;;5120795;28;20220;-83
2021/10/17 14:09:45;;;;;;;12.80;7.10;;;14.20;99.90;;;;;;5125771;28;20217;-83
2021/10/17 14:12:12;;;;;;;13.68;7.55;;;14.20;99.90;;;;;;5118072;28;20265;-83
2021/10/17 14:14:39;;;;;;;9.45;6.47;;;14.10;99.90;;;;;;5125383;28;20197;-83
2021/10/17 14:17:06;;;;;;;14.13;6.78;;;14.10;99.90;;;;;;5130922;27;20212;-83
2021/10/17 14:19:33;;;;;;;8.48;6.72;;;14.10;99.90;;;;;;5121747;28;20213;-83
2021/10/17 14:22:02;;;;;;;10.23;6.20;;;14.10;99.90;;;;;;5117473;28;20212;-83
2021/10/17 14:24:29;;;;;;;9.73;5.72;;;14.00;99.90;;;;;;5125100;28;20372;-83
2021/10/17 14:26:56;;;;;;;13.63;5.50;;;14.00;99.90;;;;;;5131392;27;20212;-83
2021/10/17 14:29:24;;;;;;;11.57;5.30;;;13.90;99.90;;;;;;5131576;27;20224;-83
2021/10/17 14:31:52;;;;;;;14.48;6.03;;;13.90;99.90;;;;;;5128123;27;20217;-83
2021/10/17 14:34:19;;;;;;;10.50;5.35;;;13.80;99.90;;;;;;5123476;28;20204;-83
2021/10/17 14:36:46;;;;;;;9.23;5.13;;;13.80;99.90;;;;;;5122940;28;20228;-84
2021/10/17 14:39:15;;;;;;;10.70;6.25;;;13.80;99.90;;;;;;5124714;28;20305;-83
2021/10/17 14:41:43;;;;;;;9.30;5.50;;;13.90;99.90;;;;;;5125787;28;20206;-83
2021/10/17 14:44:11;;;;;;;10.57;6.32;;;13.90;99.90;;;;;;5126195;27;20201;-83
2021/10/17 14:46:38;;;;;;;10.27;5.97;;;14.00;99.90;;;;;;5117798;28;20244;-83
2021/10/17 14:49:05;;;;;;;7.78;5.40;;;13.90;99.90;;;;;;5129729;27;20230;-83
2021/10/17 14:51:33;;;;;;;9.65;6.40;;;13.90;99.90;;;;;;5132017;28;20288;-84
2021/10/17 14:54:01;;;;;;;8.07;6.15;;;13.70;99.90;;;;;;5124557;28;20274;-83
2021/10/17 14:56:29;;;;;;;10.35;6.55;;;13.80;99.90;;;;;;5132540;28;20466;-83
2021/10/17 14:58:56;;;;;;;8.15;5.47;;;13.80;99.90;;;;;;5123943;28;20220;-82
2021/10/17 15:01:24;;;;;;;16.67;7.28;;;13.70;99.90;;;;;;5124831;28;20216;-83
2021/10/17 15:03:51;;;;;;;9.00;7.20;;;13.60;99.90;;;;;;5120914;28;20288;-83
2021/10/17 15:06:18;;;;;;;10.85;6.80;;;13.60;99.90;;;;;;5130588;28;20228;-83
2021/10/17 15:08:45;;;;;;;9.65;5.55;;;13.60;99.90;;;;;;5129988;27;20537;-84
2021/10/17 15:11:13;;;;;;;12.98;8.07;;;13.60;99.90;;;;;;5125825;28;20212;-83
2021/10/17 15:13:41;;;;;;;12.98;6.65;;;13.60;99.90;;;;;;5125380;28;20204;-83
2021/10/17 15:16:14;;;;;;;11.90;6.35;;;13.80;99.90;;;;;;5134892;27;20202;-83
2021/10/17 15:18:47;;;;;;;11.73;6.28;;;13.70;99.90;;;;;;5107110;28;20200;-83
2021/10/17 15:21:25;;;;;;;13.57;6.50;;;13.70;99.90;;;;;;5119489;28;20214;-84
2021/10/17 15:23:52;;;;;;;12.85;6.22;;;13.70;99.90;;;;;;5117895;28;20202;-84
2021/10/17 15:26:19;;;;;;;11.80;6.50;;;13.80;99.90;;;;;;5115025;28;20217;-84
2021/10/17 15:28:48;;;;;;;10.10;6.70;;;13.80;99.90;;;;;;5133273;28;20202;-85
2021/10/17 15:31:16;;;;;;;12.15;7.13;;;13.70;99.90;;;;;;5121656;28;20205;-83
2021/10/17 15:33:44;;;;;;;18.42;7.20;;;13.70;99.90;;;;;;5138120;28;20193;-83
2021/10/17 15:36:11;;;;;;;12.48;6.10;;;13.60;99.90;;;;;;5131643;27;20211;-82
2021/10/17 15:38:38;;;;;;;11.30;6.88;;;13.60;99.90;;;;;;5123748;28;20197;-83
2021/10/17 15:41:05;;;;;;;10.45;6.22;;;13.60;99.90;;;;;;5117353;28;20614;-83